Time;durP1;ratioP1;P1;durP2;ratioP2;P2;SDS_P1;SDS_P2;PMS_P1;PMS_P2;Temp;Humidity;BMP_temperature;BMP_pressure;BME280_temperature;BME280_humidity;BME280_pressure;Samples;Min_cycle;Max_cycle;Signal;HPM_P1;HPM_P2
2021/05/28 00:00:16;;;;;;;8.30;7.50;;;11.80;99.90;;;;;;5069779;28;20611;-64
2021/05/28 00:02:43;;;;;;;8.50;7.70;;;11.80;99.90;;;;;;5069765;28;20511;-65
2021/05/28 00:05:10;;;;;;;9.20;8.30;;;11.80;99.90;;;;;;5070011;28;20447;-64
2021/05/28 00:07:37;;;;;;;9.00;8.13;;;11.70;99.90;;;;;;5071711;28;20443;-64
2021/05/28 00:10:05;;;;;;;10.47;9.07;;;11.70;99.90;;;;;;5073715;28;20550;-65
2021/05/28 00:12:32;;;;;;;10.70;9.70;;;11.60;99.90;;;;;;5074507;28;20522;-65
2021/05/28 00:14:58;;;;;;;10.57;9.47;;;11.70;99.90;;;;;;5074445;28;20876;-65
2021/05/28 00:17:24;;;;;;;9.77;8.80;;;11.60;99.90;;;;;;5074385;28;21023;-65
2021/05/28 00:19:51;;;;;;;10.53;8.67;;;11.60;99.90;;;;;;5073796;28;20481;-65
2021/05/28 00:22:17;;;;;;;10.10;9.10;;;11.60;99.90;;;;;;5073908;28;20473;-64
2021/05/28 00:24:43;;;;;;;10.60;9.50;;;11.50;99.90;;;;;;5074221;28;20438;-65
2021/05/28 00:27:11;;;;;;;12.10;10.80;;;11.60;99.90;;;;;;5074166;28;20538;-64
2021/05/28 00:29:37;;;;;;;13.93;12.43;;;11.50;99.90;;;;;;5073691;28;20992;-65
2021/05/28 00:32:04;;;;;;;10.87;9.47;;;11.60;99.90;;;;;;5073674;28;20449;-65
2021/05/28 00:34:30;;;;;;;11.80;10.00;;;11.50;99.90;;;;;;5073755;28;20805;-65
2021/05/28 00:36:56;;;;;;;11.27;10.07;;;11.50;99.90;;;;;;5074036;28;20451;-65
2021/05/28 00:39:23;;;;;;;11.57;10.40;;;11.60;99.90;;;;;;5074144;28;20949;-64
2021/05/28 00:41:49;;;;;;;10.80;9.70;;;11.50;99.90;;;;;;5073311;28;20490;-65
2021/05/28 00:44:21;;;;;;;11.13;9.47;;;11.60;99.90;;;;;;5073327;28;20454;-65
2021/05/28 00:46:48;;;;;;;10.13;8.63;;;11.60;99.90;;;;;;5073244;28;20932;-64
2021/05/28 00:49:14;;;;;;;10.30;9.20;;;11.60;99.90;;;;;;5072915;28;20454;-65
2021/05/28 00:51:40;;;;;;;9.80;8.80;;;11.60;99.90;;;;;;5073205;28;20501;-65
2021/05/28 00:54:07;;;;;;;10.03;8.90;;;11.60;99.90;;;;;;5073471;28;20538;-64
2021/05/28 00:56:33;;;;;;;12.43;10.47;;;11.60;99.90;;;;;;5072997;28;20449;-65
2021/05/28 00:59:02;;;;;;;9.70;8.70;;;11.60;99.90;;;;;;5072796;28;20443;-65
2021/05/28 01:01:29;;;;;;;9.87;8.87;;;11.60;99.90;;;;;;5072894;28;20497;-65
2021/05/28 01:03:55;;;;;;;10.10;9.10;;;11.60;99.90;;;;;;5073144;28;20449;-65
2021/05/28 01:06:23;;;;;;;10.90;9.80;;;11.60;99.90;;;;;;5072781;28;20458;-65
2021/05/28 01:08:49;;;;;;;10.40;9.10;;;11.60;99.90;;;;;;5072864;28;20455;-65
2021/05/28 01:11:15;;;;;;;10.43;8.60;;;11.60;99.90;;;;;;5072548;28;20466;-65
2021/05/28 01:13:42;;;;;;;10.50;9.40;;;11.70;99.90;;;;;;5072852;28;20449;-64
2021/05/28 01:16:08;;;;;;;9.60;8.67;;;11.80;99.90;;;;;;5072797;28;20816;-65
2021/05/28 01:18:35;;;;;;;9.30;8.07;;;11.80;99.90;;;;;;5072282;28;20435;-65
2021/05/28 01:21:02;;;;;;;11.90;8.97;;;11.80;99.90;;;;;;5072175;28;20486;-65
2021/05/28 01:23:29;;;;;;;10.53;8.10;;;11.80;99.90;;;;;;5072482;28;20455;-64
2021/05/28 01:25:56;;;;;;;10.03;8.43;;;11.80;99.90;;;;;;5072605;28;21117;-65
2021/05/28 01:28:22;;;;;;;8.90;7.60;;;11.70;99.90;;;;;;5072448;28;20451;-64
2021/05/28 01:30:49;;;;;;;8.50;7.70;;;11.80;99.90;;;;;;5072487;28;20885;-65
2021/05/28 01:33:15;;;;;;;8.13;7.33;;;11.80;99.90;;;;;;5072241;28;20805;-65
2021/05/28 01:35:42;;;;;;;12.67;7.43;;;11.80;99.90;;;;;;5072589;28;20510;-65
2021/05/28 01:38:08;;;;;;;10.30;8.23;;;11.70;99.90;;;;;;5072548;28;20601;-65
2021/05/28 01:40:35;;;;;;;10.53;7.40;;;11.70;99.90;;;;;;5071914;28;20574;-65
2021/05/28 01:43:02;;;;;;;8.40;7.50;;;11.70;99.90;;;;;;5072399;28;20439;-65
2021/05/28 01:45:28;;;;;;;7.90;6.90;;;11.70;99.90;;;;;;5072134;28;20447;-65
2021/05/28 01:47:54;;;;;;;8.57;7.30;;;11.70;99.90;;;;;;5072092;28;20449;-65
2021/05/28 01:50:21;;;;;;;8.80;6.97;;;11.80;99.90;;;;;;5071762;28;20840;-65
2021/05/28 01:52:47;;;;;;;7.73;6.93;;;11.80;99.90;;;;;;5072508;28;20457;-65
2021/05/28 01:55:15;;;;;;;8.50;7.60;;;11.70;99.90;;;;;;5072209;28;20439;-65
2021/05/28 01:57:43;;;;;;;11.53;7.73;;;11.70;99.90;;;;;;5071946;28;20972;-65
2021/05/28 02:00:12;;;;;;;9.80;6.70;;;11.80;99.90;;;;;;5071580;28;20487;-65
2021/05/28 02:02:38;;;;;;;7.23;6.30;;;11.80;99.90;;;;;;5071898;28;20451;-65
2021/05/28 02:05:07;;;;;;;8.17;6.57;;;11.80;99.90;;;;;;5072079;28;20504;-65
2021/05/28 02:07:33;;;;;;;6.70;6.10;;;11.80;99.90;;;;;;5072082;28;20671;-65
2021/05/28 02:09:59;;;;;;;6.60;5.90;;;11.90;99.90;;;;;;5071673;28;20459;-65
2021/05/28 02:12:26;;;;;;;7.23;6.10;;;11.80;99.90;;;;;;5072150;28;20507;-67
2021/05/28 02:14:56;;;;;;;6.83;5.97;;;11.70;99.90;;;;;;5072243;28;20583;-65
2021/05/28 02:17:23;;;;;;;7.20;5.90;;;11.60;99.90;;;;;;5072101;28;20455;-64
2021/05/28 02:19:49;;;;;;;7.17;6.43;;;11.60;99.90;;;;;;5071401;28;20811;-64
2021/05/28 02:22:16;;;;;;;6.93;6.20;;;11.60;99.90;;;;;;5071719;28;20507;-66
2021/05/28 02:24:42;;;;;;;7.97;7.13;;;11.70;99.90;;;;;;5071722;28;21131;-63
2021/05/28 02:27:08;;;;;;;7.43;6.60;;;11.60;99.90;;;;;;5071464;28;20952;-63
2021/05/28 02:29:35;;;;;;;7.40;6.70;;;11.60;99.90;;;;;;5070299;28;20439;-66
2021/05/28 02:32:02;;;;;;;7.60;6.80;;;11.70;99.90;;;;;;5071367;28;20538;-67
2021/05/28 02:34:28;;;;;;;8.83;7.87;;;11.70;99.90;;;;;;5071196;28;21219;-64
2021/05/28 02:36:55;;;;;;;10.53;7.87;;;11.70;99.90;;;;;;5071207;28;20447;-64
2021/05/28 02:39:21;;;;;;;8.27;7.47;;;11.70;99.90;;;;;;5071145;28;20446;-63
2021/05/28 02:41:47;;;;;;;9.77;8.10;;;11.70;99.90;;;;;;5071138;28;20578;-63
2021/05/28 02:44:14;;;;;;;10.93;7.57;;;11.60;99.90;;;;;;5071038;28;20446;-64
2021/05/28 02:46:40;;;;;;;8.73;7.80;;;11.60;99.90;;;;;;5070791;28;20439;-64
2021/05/28 02:49:08;;;;;;;9.20;8.30;;;11.50;99.90;;;;;;5070774;28;20454;-64
2021/05/28 02:51:34;;;;;;;9.30;8.17;;;11.40;99.90;;;;;;5070883;28;20467;-64
2021/05/28 02:54:00;;;;;;;9.40;6.83;;;11.40;99.90;;;;;;5070810;28;20443;-64
2021/05/28 02:56:27;;;;;;;9.70;7.60;;;11.40;99.90;;;;;;5070845;28;20534;-66
2021/05/28 02:58:53;;;;;;;9.20;7.10;;;11.30;99.90;;;;;;5070722;28;20451;-64
2021/05/28 03:01:19;;;;;;;8.20;6.63;;;11.40;99.90;;;;;;5070406;28;20923;-64
2021/05/28 03:03:46;;;;;;;8.23;7.40;;;11.30;99.90;;;;;;5070700;28;20443;-64
2021/05/28 03:06:14;;;;;;;8.30;6.83;;;11.30;99.90;;;;;;5070541;28;20967;-63
2021/05/28 03:08:40;;;;;;;6.57;5.70;;;11.40;99.90;;;;;;5070576;28;20448;-64
2021/05/28 03:11:06;;;;;;;6.90;6.00;;;11.40;99.90;;;;;;5070303;28;21019;-64
2021/05/28 03:13:33;;;;;;;7.70;6.90;;;11.40;99.90;;;;;;5070343;28;20453;-63
2021/05/28 03:15:59;;;;;;;7.67;6.03;;;11.40;99.90;;;;;;5070611;28;20439;-64
2021/05/28 03:18:34;;;;;;;8.33;7.37;;;11.40;99.90;;;;;;5070481;28;20451;-64
2021/05/28 03:21:18;;;;;;;9.90;8.23;;;11.40;99.90;;;;;;5070209;28;20526;-64
2021/05/28 03:23:46;;;;;;;9.70;7.77;;;11.40;99.90;;;;;;5070408;28;20447;-64
2021/05/28 03:26:12;;;;;;;8.73;6.70;;;11.50;99.90;;;;;;5070549;28;20454;-63
2021/05/28 03:28:38;;;;;;;7.70;6.40;;;11.40;99.90;;;;;;5070311;28;20814;-63
2021/05/28 03:31:05;;;;;;;7.40;6.30;;;11.40;99.90;;;;;;5070088;28;21003;-66
2021/05/28 03:33:31;;;;;;;6.87;6.20;;;11.40;99.90;;;;;;5070238;28;20468;-63
2021/05/28 03:35:57;;;;;;;7.57;6.77;;;11.40;99.90;;;;;;5070272;28;20525;-67
2021/05/28 03:38:24;;;;;;;8.07;5.60;;;11.40;99.90;;;;;;5070281;28;20447;-64
2021/05/28 03:40:51;;;;;;;7.60;6.80;;;11.40;99.90;;;;;;5070020;28;20569;-63
2021/05/28 03:43:17;;;;;;;10.00;7.20;;;11.30;99.90;;;;;;5070336;28;20515;-64
2021/05/28 03:45:44;;;;;;;8.77;7.87;;;11.20;99.90;;;;;;5070260;28;20534;-64
2021/05/28 03:48:10;;;;;;;8.10;7.30;;;11.20;99.90;;;;;;5070074;28;20445;-64
2021/05/28 03:50:37;;;;;;;8.30;7.50;;;11.00;99.90;;;;;;5069570;28;20463;-64
2021/05/28 03:53:03;;;;;;;13.67;9.20;;;10.80;99.90;;;;;;5070273;28;20459;-64
2021/05/28 03:55:29;;;;;;;8.70;7.80;;;10.70;99.90;;;;;;5070049;28;20542;-67
2021/05/28 03:57:56;;;;;;;8.90;7.50;;;10.70;99.90;;;;;;5070682;28;20447;-64
2021/05/28 04:00:24;;;;;;;7.60;6.80;;;10.80;99.90;;;;;;5070451;28;20483;-64
2021/05/28 04:02:51;;;;;;;10.77;8.47;;;10.80;99.90;;;;;;5070233;28;20457;-64
2021/05/28 04:05:17;;;;;;;9.10;7.67;;;10.80;99.90;;;;;;5070172;28;20541;-64
2021/05/28 04:07:44;;;;;;;9.70;7.53;;;10.80;99.90;;;;;;5070437;28;20933;-64
2021/05/28 04:10:12;;;;;;;7.13;6.40;;;10.80;99.90;;;;;;5070041;28;20469;-65
2021/05/28 04:12:38;;;;;;;7.30;6.60;;;10.80;99.90;;;;;;5070410;28;20443;-64
2021/05/28 04:15:08;;;;;;;9.80;6.60;;;10.70;99.90;;;;;;5070010;28;20442;-64
2021/05/28 04:17:35;;;;;;;10.60;7.33;;;10.70;99.90;;;;;;5069769;28;20443;-65
2021/05/28 04:20:01;;;;;;;12.30;7.47;;;10.60;99.90;;;;;;5069126;28;20545;-63
2021/05/28 04:22:27;;;;;;;8.60;7.40;;;10.50;99.90;;;;;;5069597;28;21048;-64
2021/05/28 04:24:54;;;;;;;8.10;7.03;;;10.50;99.90;;;;;;5069676;28;20451;-64
2021/05/28 04:27:20;;;;;;;7.57;6.00;;;10.50;99.90;;;;;;5069746;28;20443;-64
2021/05/28 04:29:46;;;;;;;7.90;7.10;;;10.60;99.90;;;;;;5069233;28;20450;-64
2021/05/28 04:32:14;;;;;;;8.10;7.30;;;10.60;99.90;;;;;;5069751;28;20457;-65
2021/05/28 04:34:40;;;;;;;7.40;6.47;;;10.60;99.90;;;;;;5069866;28;20443;-64
2021/05/28 04:37:07;;;;;;;8.50;7.00;;;10.50;99.90;;;;;;5069758;28;20453;-63
2021/05/28 04:39:34;;;;;;;7.93;6.73;;;10.60;99.90;;;;;;5069564;28;20451;-64
2021/05/28 04:42:00;;;;;;;8.03;6.97;;;10.60;99.90;;;;;;5069636;28;20489;-63
2021/05/28 04:44:26;;;;;;;10.50;8.20;;;10.60;99.90;;;;;;5069470;28;20450;-64
2021/05/28 04:46:53;;;;;;;10.30;7.50;;;10.60;99.90;;;;;;5069323;28;20956;-63
2021/05/28 04:49:20;;;;;;;8.77;7.40;;;10.60;99.90;;;;;;5068933;28;20478;-63
2021/05/28 04:51:48;;;;;;;10.43;8.40;;;10.60;99.90;;;;;;5069548;28;20562;-64
2021/05/28 04:54:14;;;;;;;7.23;6.53;;;10.60;99.90;;;;;;5072043;28;20449;-64
2021/05/28 04:56:40;;;;;;;10.53;7.20;;;10.70;99.90;;;;;;5072947;28;20449;-64
2021/05/28 04:59:07;;;;;;;10.27;7.40;;;10.70;99.90;;;;;;5072449;28;20496;-64
2021/05/28 05:01:33;;;;;;;10.07;8.40;;;10.80;99.90;;;;;;5072374;28;20487;-64
2021/05/28 05:03:59;;;;;;;13.00;8.30;;;10.80;99.90;;;;;;5072769;28;20443;-63
2021/05/28 05:06:27;;;;;;;8.60;7.70;;;11.00;99.90;;;;;;5072379;28;20447;-64
2021/05/28 05:08:53;;;;;;;9.07;8.10;;;11.30;99.90;;;;;;5072454;28;21008;-64
2021/05/28 05:11:19;;;;;;;7.90;7.10;;;11.60;99.90;;;;;;5072106;28;20465;-64
2021/05/28 05:13:45;;;;;;;9.33;8.03;;;11.90;99.90;;;;;;5072347;28;20798;-63
2021/05/28 05:16:12;;;;;;;10.13;7.50;;;12.00;99.90;;;;;;5072171;28;20846;-64
2021/05/28 05:18:38;;;;;;;12.13;8.93;;;12.20;99.90;;;;;;5072327;28;20542;-64
2021/05/28 05:21:05;;;;;;;11.50;8.67;;;12.20;99.90;;;;;;5072135;28;20600;-66
2021/05/28 05:23:32;;;;;;;9.30;8.20;;;12.20;99.90;;;;;;5072399;28;20889;-64
2021/05/28 05:25:58;;;;;;;9.23;8.20;;;12.30;99.90;;;;;;5072433;28;20576;-66
2021/05/28 05:28:25;;;;;;;10.30;8.33;;;12.40;99.90;;;;;;5072208;28;20447;-66
2021/05/28 05:30:51;;;;;;;10.23;8.10;;;12.40;99.90;;;;;;5071969;28;20546;-66
2021/05/28 05:33:17;;;;;;;8.87;7.97;;;12.50;99.90;;;;;;5072331;28;20451;-66
2021/05/28 05:35:44;;;;;;;11.27;8.70;;;12.60;99.90;;;;;;5072252;28;20474;-66
2021/05/28 05:38:10;;;;;;;9.13;8.20;;;12.70;99.90;;;;;;5072310;28;20538;-66
2021/05/28 05:40:38;;;;;;;10.87;8.83;;;12.80;99.90;;;;;;5071513;28;20479;-66
2021/05/28 05:43:05;;;;;;;9.97;8.13;;;12.80;99.90;;;;;;5071991;28;20486;-67
2021/05/28 05:45:32;;;;;;;11.90;9.80;;;12.80;99.90;;;;;;5071773;28;20450;-66
2021/05/28 05:47:58;;;;;;;15.30;9.10;;;12.80;99.90;;;;;;5072022;28;20533;-66
2021/05/28 05:50:24;;;;;;;12.17;8.67;;;12.90;99.90;;;;;;5071747;28;20467;-66
2021/05/28 05:52:53;;;;;;;10.03;9.07;;;13.10;99.90;;;;;;5072172;28;20443;-66
2021/05/28 05:55:19;;;;;;;11.57;10.00;;;13.00;99.90;;;;;;5072035;28;20829;-66
2021/05/28 05:57:47;;;;;;;11.20;9.47;;;13.10;99.90;;;;;;5071971;28;20509;-65
2021/05/28 06:00:14;;;;;;;12.00;10.53;;;13.10;99.90;;;;;;5071794;28;20546;-66
2021/05/28 06:02:40;;;;;;;9.87;8.83;;;13.00;99.90;;;;;;5071965;28;20435;-65
2021/05/28 06:05:07;;;;;;;11.83;8.40;;;13.00;99.90;;;;;;5070871;28;20451;-65
2021/05/28 06:07:34;;;;;;;12.63;9.50;;;13.00;99.90;;;;;;5071956;28;20447;-66
2021/05/28 06:10:00;;;;;;;11.27;9.60;;;13.20;99.90;;;;;;5071445;28;20880;-66
2021/05/28 06:12:26;;;;;;;11.20;9.97;;;13.20;99.90;;;;;;5071481;28;20475;-66
2021/05/28 06:14:54;;;;;;;17.63;10.00;;;13.30;99.90;;;;;;5071661;28;20831;-66
2021/05/28 06:17:20;;;;;;;9.57;8.57;;;13.50;99.90;;;;;;5071489;28;20539;-66
2021/05/28 06:19:46;;;;;;;9.93;8.90;;;13.50;99.90;;;;;;5070995;28;20820;-65
2021/05/28 06:22:13;;;;;;;13.83;9.00;;;13.80;99.90;;;;;;5071135;28;21120;-66
2021/05/28 06:24:39;;;;;;;9.10;7.87;;;14.10;99.90;;;;;;5071030;28;20489;-65
2021/05/28 06:27:08;;;;;;;11.07;8.60;;;14.40;99.90;;;;;;5070947;28;20475;-64
2021/05/28 06:29:35;;;;;;;11.50;8.70;;;14.60;99.90;;;;;;5070941;28;20451;-66
2021/05/28 06:32:03;;;;;;;11.43;9.40;;;14.70;99.90;;;;;;5070953;28;20487;-66
2021/05/28 06:34:29;;;;;;;10.97;9.87;;;14.90;99.90;;;;;;5071011;28;20600;-66
2021/05/28 06:36:55;;;;;;;8.83;7.93;;;14.70;99.90;;;;;;5070856;28;20450;-66
2021/05/28 06:39:22;;;;;;;11.30;8.10;;;14.60;99.90;;;;;;5070407;28;20451;-65
2021/05/28 06:41:48;;;;;;;11.00;9.23;;;14.30;99.90;;;;;;5070557;28;20487;-66
2021/05/28 06:44:14;;;;;;;11.47;8.77;;;14.10;99.90;;;;;;5070945;28;20529;-67
2021/05/28 06:46:41;;;;;;;10.33;9.23;;;13.90;99.90;;;;;;5070823;28;20449;-65
2021/05/28 06:49:08;;;;;;;10.83;9.30;;;13.70;99.90;;;;;;5070432;28;20447;-66
2021/05/28 06:51:34;;;;;;;10.03;8.77;;;13.60;99.90;;;;;;5070915;28;20495;-67
2021/05/28 06:54:01;;;;;;;9.50;8.60;;;13.70;99.90;;;;;;5071162;28;20439;-66
2021/05/28 06:56:27;;;;;;;10.03;8.00;;;14.20;99.90;;;;;;5071543;28;20453;-66
2021/05/28 06:58:53;;;;;;;9.00;8.10;;;14.50;99.90;;;;;;5071292;28;20535;-66
2021/05/28 07:01:21;;;;;;;11.70;8.17;;;14.80;99.90;;;;;;5070762;28;20585;-65
2021/05/28 07:03:48;;;;;;;10.30;8.10;;;15.00;99.90;;;;;;5070377;28;20581;-64
2021/05/28 07:06:15;;;;;;;8.53;7.63;;;15.10;99.90;;;;;;5070487;28;20830;-65
2021/05/28 07:08:41;;;;;;;8.20;6.80;;;15.50;99.90;;;;;;5070182;28;20526;-64
2021/05/28 07:11:09;;;;;;;10.07;7.90;;;15.80;99.90;;;;;;5069867;28;20980;-65
2021/05/28 07:13:35;;;;;;;10.07;7.40;;;16.10;99.90;;;;;;5070254;28;20868;-65
2021/05/28 07:16:02;;;;;;;12.13;8.37;;;16.30;99.90;;;;;;5070009;28;20526;-65
2021/05/28 07:18:28;;;;;;;8.73;6.90;;;16.50;99.90;;;;;;5069998;28;20504;-64
2021/05/28 07:20:54;;;;;;;8.70;7.83;;;16.50;99.90;;;;;;5069739;28;20540;-65
2021/05/28 07:23:23;;;;;;;10.30;7.50;;;16.40;99.90;;;;;;5069805;28;20894;-65
2021/05/28 07:25:50;;;;;;;8.13;6.60;;;16.10;99.90;;;;;;5069909;28;20450;-64
2021/05/28 07:28:16;;;;;;;8.63;7.83;;;16.00;99.90;;;;;;5069762;28;20944;-63
2021/05/28 07:30:43;;;;;;;14.20;8.20;;;16.10;99.90;;;;;;5069702;28;20523;-65
2021/05/28 07:33:09;;;;;;;8.80;7.90;;;16.10;99.90;;;;;;5069890;28;20838;-64
2021/05/28 07:35:35;;;;;;;11.57;8.20;;;16.30;99.90;;;;;;5070399;28;20495;-65
2021/05/28 07:38:02;;;;;;;9.80;7.50;;;16.50;99.90;;;;;;5070294;28;20933;-64
2021/05/28 07:40:30;;;;;;;8.30;6.90;;;16.70;99.90;;;;;;5069584;28;20477;-64
2021/05/28 07:42:57;;;;;;;9.83;8.83;;;16.80;99.90;;;;;;5035300;28;20606;-64
2021/05/28 07:45:23;;;;;;;9.73;8.00;;;16.90;99.90;;;;;;5069915;28;20446;-64
2021/05/28 07:47:50;;;;;;;10.00;8.97;;;16.70;99.90;;;;;;5069848;28;20941;-65
2021/05/28 07:50:16;;;;;;;9.93;7.90;;;16.70;99.90;;;;;;5069557;28;20838;-65
2021/05/28 07:52:44;;;;;;;9.17;7.33;;;16.70;99.90;;;;;;5070153;28;20534;-64
2021/05/28 07:55:11;;;;;;;10.63;8.23;;;16.60;99.90;;;;;;5070119;28;20963;-66
2021/05/28 07:57:39;;;;;;;9.00;7.60;;;16.60;99.90;;;;;;5070668;28;20451;-64
2021/05/28 08:00:07;;;;;;;10.33;7.57;;;16.50;99.90;;;;;;5070712;28;20538;-65
2021/05/28 08:02:34;;;;;;;8.45;7.60;;;16.50;99.90;;;;;;5069299;28;20450;-65
2021/05/28 08:05:00;;;;;;;8.20;6.70;;;16.40;99.90;;;;;;5070158;28;20696;-65
2021/05/28 08:07:27;;;;;;;7.63;6.37;;;16.50;99.90;;;;;;5070174;28;20445;-65
2021/05/28 08:09:53;;;;;;;8.93;7.20;;;16.70;99.90;;;;;;5069732;28;20503;-65
2021/05/28 08:12:19;;;;;;;12.20;8.33;;;16.70;99.90;;;;;;5070003;28;20501;-65
2021/05/28 08:14:47;;;;;;;8.40;7.50;;;16.60;99.90;;;;;;5069983;28;20838;-65
2021/05/28 08:17:13;;;;;;;9.03;6.80;;;16.50;99.90;;;;;;5070041;28;20451;-65
2021/05/28 08:19:40;;;;;;;8.30;6.97;;;16.30;99.90;;;;;;5069408;28;20455;-65
2021/05/28 08:22:06;;;;;;;6.70;6.00;;;16.20;99.90;;;;;;5069533;28;20537;-65
2021/05/28 08:24:33;;;;;;;8.53;6.70;;;16.30;99.90;;;;;;5069872;28;20455;-65
2021/05/28 08:26:59;;;;;;;9.10;7.50;;;16.40;99.90;;;;;;5069875;28;20443;-65
2021/05/28 08:29:25;;;;;;;8.77;7.87;;;16.10;99.90;;;;;;5073261;28;20473;-65
2021/05/28 08:31:52;;;;;;;9.33;7.67;;;16.30;99.90;;;;;;5073873;28;20458;-65
2021/05/28 08:34:18;;;;;;;8.63;7.53;;;16.40;99.90;;;;;;5073546;28;20439;-66
2021/05/28 08:36:45;;;;;;;8.77;7.87;;;16.20;99.90;;;;;;5073693;28;20447;-66
2021/05/28 08:39:11;;;;;;;8.30;7.30;;;16.20;99.90;;;;;;5073141;28;20438;-66
2021/05/28 08:41:42;;;;;;;9.23;7.23;;;16.40;99.90;;;;;;5073422;28;21057;-66
2021/05/28 08:44:10;;;;;;;9.20;7.13;;;16.60;99.90;;;;;;5073409;28;20439;-65
2021/05/28 08:46:37;;;;;;;8.40;7.30;;;16.60;99.90;;;;;;5073277;28;20478;-66
2021/05/28 08:49:09;;;;;;;9.13;7.53;;;16.60;99.90;;;;;;5073422;28;20447;-66
2021/05/28 08:51:36;;;;;;;8.97;7.27;;;16.40;99.90;;;;;;5073610;28;20542;-65
2021/05/28 08:54:02;;;;;;;8.00;7.17;;;16.20;99.90;;;;;;5073454;28;20439;-66
2021/05/28 08:56:31;;;;;;;7.50;6.80;;;16.40;99.90;;;;;;5073169;28;20875;-65
2021/05/28 08:58:57;;;;;;;8.70;7.40;;;16.40;99.90;;;;;;5072841;28;20973;-65
2021/05/28 09:01:24;;;;;;;8.53;7.17;;;16.40;99.90;;;;;;5072878;28;20539;-65
2021/05/28 09:03:58;;;;;;;9.70;6.90;;;16.70;99.90;;;;;;5072994;28;20482;-65
2021/05/28 09:06:36;;;;;;;10.80;8.40;;;16.50;99.90;;;;;;5072854;28;20442;-65
2021/05/28 09:09:09;;;;;;;8.20;7.40;;;16.40;99.90;;;;;;5072490;28;20447;-66
2021/05/28 09:11:50;;;;;;;7.20;6.07;;;16.60;99.90;;;;;;5072775;28;20477;-65
2021/05/28 09:14:32;;;;;;;8.50;6.70;;;17.40;99.90;;;;;;5076214;28;20877;-66
2021/05/28 09:16:59;;;;;;;9.80;6.90;;;17.50;99.90;;;;;;5072975;28;20529;-64
2021/05/28 09:19:26;;;;;;;6.87;6.23;;;17.00;99.90;;;;;;5072572;28;20482;-65
2021/05/28 09:21:58;;;;;;;6.90;6.13;;;16.90;99.90;;;;;;5072053;28;21093;-65
2021/05/28 09:24:31;;;;;;;8.57;5.50;;;16.90;99.90;;;;;;5072560;28;20504;-65
2021/05/28 09:27:18;;;;;;;5.20;4.60;;;17.30;99.90;;;;;;5072489;28;20499;-65
2021/05/28 09:30:02;;;;;;;6.07;5.47;;;17.60;99.90;;;;;;5072387;28;20438;-66
2021/05/28 09:32:29;;;;;;;5.37;4.87;;;17.80;99.90;;;;;;5072163;28;20530;-66
2021/05/28 09:34:56;;;;;;;10.30;6.07;;;17.70;99.90;;;;;;5072339;28;20451;-66
2021/05/28 09:37:36;;;;;;;6.83;4.73;;;18.10;99.90;;;;;;5072369;28;20443;-66
2021/05/28 09:40:13;;;;;;;5.70;5.20;;;17.90;99.90;;;;;;5071835;28;20463;-65
2021/05/28 09:42:50;;;;;;;7.63;5.90;;;17.70;99.90;;;;;;5072175;28;20585;-66
2021/05/28 09:45:22;;;;;;;8.50;5.87;;;17.20;99.90;;;;;;5072681;28;20580;-65
2021/05/28 09:47:48;;;;;;;6.90;5.23;;;17.30;99.90;;;;;;5072506;28;20486;-65
2021/05/28 09:50:16;;;;;;;7.83;6.77;;;17.60;99.90;;;;;;5071847;28;20473;-66
2021/05/28 09:52:43;;;;;;;8.47;5.93;;;17.60;99.90;;;;;;5072233;28;20439;-66
2021/05/28 09:55:13;;;;;;;7.43;5.67;;;17.50;99.90;;;;;;5072126;28;20461;-65
2021/05/28 09:57:41;;;;;;;6.73;5.97;;;18.10;99.90;;;;;;5071802;28;20816;-65
2021/05/28 10:00:10;;;;;;;7.93;5.57;;;18.60;99.90;;;;;;5071265;28;20985;-65
2021/05/28 10:02:42;;;;;;;6.17;5.57;;;19.00;99.90;;;;;;5071512;28;20479;-65
2021/05/28 10:05:09;;;;;;;7.30;6.50;;;18.80;99.90;;;;;;5071485;28;20957;-65
2021/05/28 10:07:37;;;;;;;6.53;5.73;;;18.80;99.90;;;;;;5071503;28;20439;-65
2021/05/28 10:10:06;;;;;;;6.10;5.50;;;19.20;99.90;;;;;;5070919;28;20478;-65
2021/05/28 10:12:33;;;;;;;7.97;5.60;;;19.40;99.90;;;;;;5071747;28;20486;-65
2021/05/28 10:14:59;;;;;;;8.60;6.57;;;19.50;99.90;;;;;;5071440;28;20543;-64
2021/05/28 10:17:25;;;;;;;8.70;5.70;;;18.50;99.90;;;;;;5071391;28;20474;-65
2021/05/28 10:19:52;;;;;;;6.50;5.47;;;18.30;99.90;;;;;;5070968;28;20511;-64
2021/05/28 10:22:21;;;;;;;6.77;6.00;;;18.80;99.90;;;;;;5070958;28;20489;-65
2021/05/28 10:24:48;;;;;;;6.30;5.07;;;19.70;99.90;;;;;;5070966;28;20451;-64
2021/05/28 10:27:21;;;;;;;7.13;5.00;;;20.40;99.40;;;;;;5071087;28;20447;-65
2021/05/28 10:29:50;;;;;;;6.00;5.20;;;21.10;97.40;;;;;;5070865;28;20469;-64
2021/05/28 10:32:17;;;;;;;6.30;5.30;;;21.70;96.30;;;;;;5070872;28;20446;-64
2021/05/28 10:35:03;;;;;;;5.53;4.70;;;21.70;95.20;;;;;;5070935;28;20447;-64
2021/05/28 10:37:30;;;;;;;4.30;3.80;;;21.40;94.90;;;;;;5071283;28;20533;-64
2021/05/28 10:39:57;;;;;;;4.20;3.57;;;21.20;92.10;;;;;;5070605;28;20443;-65
2021/05/28 10:42:24;;;;;;;5.80;4.30;;;21.70;95.30;;;;;;5070350;28;20491;-65
2021/05/28 10:44:50;;;;;;;5.67;3.70;;;22.60;94.10;;;;;;5070670;28;20453;-65
2021/05/28 10:47:22;;;;;;;6.20;3.50;;;23.10;91.20;;;;;;5070108;28;20443;-66
2021/05/28 10:49:52;;;;;;;4.70;4.10;;;24.00;91.40;;;;;;5070481;28;20439;-66
2021/05/28 10:52:30;;;;;;;3.90;3.17;;;24.00;85.00;;;;;;5070160;28;20443;-66
2021/05/28 10:55:00;;;;;;;4.53;3.43;;;22.80;83.40;;;;;;5070534;28;20435;-66
2021/05/28 10:57:32;;;;;;;3.87;2.77;;;21.90;86.50;;;;;;5070567;28;20530;-66
2021/05/28 11:00:10;;;;;;;4.97;3.73;;;20.90;88.90;;;;;;5070195;28;20941;-65
2021/05/28 11:03:00;;;;;;;3.90;3.03;;;20.30;89.00;;;;;;5070516;28;20489;-65
2021/05/28 11:05:47;;;;;;;6.70;4.37;;;19.90;91.10;;;;;;5070419;28;20439;-65
2021/05/28 11:08:42;;;;;;;3.30;2.70;;;19.30;91.80;;;;;;5070569;28;20450;-65
2021/05/28 11:11:09;;;;;;;5.33;4.07;;;18.90;93.10;;;;;;5070408;28;20550;-65
2021/05/28 11:13:57;;;;;;;5.80;3.80;;;18.60;93.40;;;;;;5070351;28;20450;-65
2021/05/28 11:16:24;;;;;;;5.80;3.37;;;18.40;94.90;;;;;;5070277;28;20451;-65
2021/05/28 11:18:51;;;;;;;4.63;3.80;;;18.80;95.30;;;;;;5070269;28;20469;-65
2021/05/28 11:21:19;;;;;;;3.77;3.40;;;19.70;94.40;;;;;;5070103;28;20490;-65
2021/05/28 11:23:47;;;;;;;6.10;3.23;;;20.90;95.90;;;;;;5070382;28;20524;-65
2021/05/28 11:26:24;;;;;;;4.00;3.60;;;21.90;93.10;;;;;;5070232;28;20447;-66
2021/05/28 11:28:52;;;;;;;5.37;3.83;;;22.20;91.90;;;;;;5070045;28;20438;-66
2021/05/28 11:31:24;;;;;;;5.23;3.60;;;21.80;90.90;;;;;;5069946;28;20550;-66
2021/05/28 11:33:59;;;;;;;5.33;3.80;;;21.50;91.70;;;;;;5069985;28;20455;-66
2021/05/28 11:36:52;;;;;;;5.20;3.90;;;21.70;92.20;;;;;;5070153;28;20832;-66
2021/05/28 11:39:24;;;;;;;4.37;3.77;;;21.60;86.50;;;;;;5070303;28;20450;-66
2021/05/28 11:41:57;;;;;;;4.20;3.10;;;21.60;90.90;;;;;;5070457;28;21008;-65
2021/05/28 11:44:25;;;;;;;5.20;3.53;;;22.40;89.30;;;;;;5070589;28;20461;-65
2021/05/28 11:46:53;;;;;;;7.43;3.73;;;23.60;84.60;;;;;;5070503;28;20451;-66
2021/05/28 11:49:20;;;;;;;4.80;3.60;;;24.00;84.70;;;;;;5070102;28;20560;-65
2021/05/28 11:51:57;;;;;;;3.90;3.20;;;25.30;86.20;;;;;;5070379;28;20554;-66
2021/05/28 11:54:27;;;;;;;4.43;3.23;;;26.50;82.20;;;;;;5070626;28;20533;-66
2021/05/28 11:56:58;;;;;;;2.93;2.60;;;26.40;76.60;;;;;;5070541;28;20534;-66
2021/05/28 11:59:49;;;;;;;3.33;2.20;;;25.60;73.90;;;;;;5070061;28;20447;-66
2021/05/28 12:02:48;;;;;;;4.67;2.87;;;25.00;78.70;;;;;;5069364;28;20478;-66
2021/05/28 12:05:24;;;;;;;3.90;3.50;;;23.50;77.30;;;;;;5070054;28;20443;-66
2021/05/28 12:07:51;;;;;;;3.63;3.03;;;22.80;81.80;;;;;;5070066;28;20535;-66
2021/05/28 12:10:19;;;;;;;3.83;3.53;;;22.30;83.80;;;;;;5069595;28;21164;-66
2021/05/28 12:13:05;;;;;;;5.23;3.33;;;21.30;83.60;;;;;;5070368;28;20446;-66
2021/05/28 12:15:34;;;;;;;4.10;3.23;;;21.80;86.90;;;;;;5070309;28;20502;-65
2021/05/28 12:18:02;;;;;;;4.83;3.40;;;22.70;90.30;;;;;;5069881;28;20449;-65
2021/05/28 12:20:32;;;;;;;4.20;3.20;;;23.00;86.60;;;;;;5069754;28;20463;-66
2021/05/28 12:23:04;;;;;;;4.73;3.10;;;22.90;80.40;;;;;;5069613;28;20487;-64
2021/05/28 12:25:33;;;;;;;4.30;3.57;;;22.60;85.60;;;;;;5069866;28;20538;-64
2021/05/28 12:28:11;;;;;;;5.13;4.10;;;22.30;87.20;;;;;;5070126;28;20453;-63
2021/05/28 12:30:38;;;;;;;3.60;3.27;;;21.60;88.00;;;;;;5069381;28;21109;-64
2021/05/28 12:33:05;;;;;;;3.83;3.23;;;22.40;90.10;;;;;;5069684;28;20526;-65
2021/05/28 12:35:32;;;;;;;2.90;2.37;;;23.60;86.00;;;;;;5069573;28;20439;-65
2021/05/28 12:38:08;;;;;;;4.23;2.80;;;24.40;71.50;;;;;;5069436;28;20443;-66
2021/05/28 12:40:35;;;;;;;3.90;2.80;;;25.10;73.10;;;;;;5069265;28;20466;-65
2021/05/28 12:43:04;;;;;;;3.13;2.47;;;25.00;73.20;;;;;;5069575;28;20532;-65
2021/05/28 12:45:35;;;;;;;3.80;3.10;;;25.60;74.90;;;;;;5069645;28;20460;-64
2021/05/28 12:48:02;;;;;;;3.30;2.80;;;25.70;70.30;;;;;;5069720;28;20823;-66